Alford, Indiana
Current Conditions -  °F | °C
As of 6:15 AM on Monday 20 Oct 2014 (Local Time) from KDCY Reporting Station
Broken Clouds Broken Clouds  
Wind Chill:   Ceiling: 11000
Heat Index: 10°   Visibility: 10mi
Dew Point:   Wind: 7mph
Humidity: 91%   Direction: 190°S
Pressure: 29.98"   Gusts: NA
Location:  38.4723°N, 87.3105°W
Report Text: KDCY 201115Z AUTO 19006KT 10SM BKN110 10/08 A2998 RMK AO2 T00970083
Loading
Personal Weather Stations






























Interactive Weather Map
Tropical Storm Tracking
New forecast layout! Learn more

10-Day Weather Forecast

Advertisements
Track Severe Weather on mobile